Time,TemperatureF,DewpointF,PressureIn,WindDirection,WindDirectionDegrees,WindSpeedMPH,WindSpeedGustMPH,Humidity,HourlyPrecipIn,Conditions,Clouds,dailyrainin,SoftwareType,DateUTC
2013-06-18 00:02:00,74.3,67.0,29.88,SSE,162,0.0,1.0,77,0.00,,,0.10,weatherlink.com 1.10,2013-06-18 04:02:00,
2013-06-18 00:17:00,74.6,67.0,29.88,SE,136,1.0,4.0,76,0.00,,,0.00,weatherlink.com 1.10,2013-06-18 04:17:00,
2013-06-18 00:32:00,74.2,66.0,29.87,SE,136,0.0,0.0,76,0.00,,,0.00,weatherlink.com 1.10,2013-06-18 04:32:00,
2013-06-18 00:47:00,73.9,66.0,29.88,SSE,155,1.0,3.0,76,0.00,,,0.00,weatherlink.com 1.10,2013-06-18 04:47:00,
2013-06-18 01:02:00,73.7,66.0,29.88,SSE,150,2.0,2.0,77,0.00,,,0.00,weatherlink.com 1.10,2013-06-18 05:02:00,
2013-06-18 01:17:00,73.3,66.0,29.87,SE,136,0.0,1.0,78,0.00,,,0.00,weatherlink.com 1.10,2013-06-18 05:17:00,
2013-06-18 01:32:00,72.7,66.0,29.88,SSE,155,0.0,2.0,79,0.00,,,0.00,weatherlink.com 1.10,2013-06-18 05:32:00,
2013-06-18 01:47:00,72.0,66.0,29.88,SSE,156,0.0,0.0,80,0.00,,,0.00,weatherlink.com 1.10,2013-06-18 05:47:00,
2013-06-18 02:02:00,71.5,66.0,29.87,ESE,107,1.0,2.0,82,0.00,,,0.00,weatherlink.com 1.10,2013-06-18 06:02:00,
2013-06-18 02:17:00,71.0,65.0,29.87,ESE,107,0.0,0.0,82,0.00,,,0.00,weatherlink.com 1.10,2013-06-18 06:17:00,
2013-06-18 02:32:00,70.7,65.0,29.87,ESE,108,0.0,1.0,83,0.00,,,0.00,weatherlink.com 1.10,2013-06-18 06:32:00,
2013-06-18 02:47:00,70.5,66.0,29.87,ESE,107,0.0,0.0,84,0.00,,,0.00,weatherlink.com 1.10,2013-06-18 06:47:00,
2013-06-18 03:02:00,70.4,66.0,29.86,ESE,107,0.0,0.0,85,0.00,,,0.00,weatherlink.com 1.10,2013-06-18 07:02:00,
2013-06-18 03:17:00,69.7,65.0,29.86,ESE,107,0.0,0.0,85,0.00,,,0.00,weatherlink.com 1.10,2013-06-18 07:17:00,
2013-06-18 03:32:00,69.3,65.0,29.86,ESE,108,0.0,0.0,87,0.00,,,0.00,weatherlink.com 1.10,2013-06-18 07:32:00,
2013-06-18 03:47:00,68.9,65.0,29.86,ESE,107,0.0,0.0,88,0.00,,,0.00,weatherlink.com 1.10,2013-06-18 07:47:00,
2013-06-18 04:02:00,68.6,65.0,29.85,ESE,107,0.0,0.0,87,0.00,,,0.00,weatherlink.com 1.10,2013-06-18 08:02:00,
2013-06-18 04:17:00,68.2,64.0,29.86,ESE,107,0.0,0.0,87,0.00,,,0.00,weatherlink.com 1.10,2013-06-18 08:17:00,
2013-06-18 04:32:00,67.7,64.0,29.86,ESE,107,0.0,0.0,87,0.00,,,0.00,weatherlink.com 1.10,2013-06-18 08:32:00,
2013-06-18 04:47:00,67.1,63.0,29.86,ESE,108,0.0,0.0,86,0.00,,,0.00,weatherlink.com 1.10,2013-06-18 08:47:00,
2013-06-18 05:02:00,66.8,63.0,29.86,ESE,107,0.0,0.0,87,0.00,,,0.00,weatherlink.com 1.10,2013-06-18 09:02:00,
2013-06-18 05:17:00,66.6,63.0,29.87,ESE,108,0.0,0.0,87,0.00,,,0.00,weatherlink.com 1.10,2013-06-18 09:17:00,
2013-06-18 05:32:00,66.6,63.0,29.87,ESE,108,0.0,0.0,87,0.00,,,0.00,weatherlink.com 1.10,2013-06-18 09:32:00,
2013-06-18 05:47:00,66.6,63.0,29.87,East,91,0.0,1.0,87,0.00,,,0.00,weatherlink.com 1.10,2013-06-18 09:47:00,
2013-06-18 06:02:00,66.5,63.0,29.88,East,91,0.0,1.0,88,0.00,,,0.00,weatherlink.com 1.10,2013-06-18 10:02:00,
2013-06-18 06:17:00,66.6,63.0,29.88,East,89,0.0,1.0,88,0.00,,,0.00,weatherlink.com 1.10,2013-06-18 10:17:00,
2013-06-18 06:32:00,67.1,64.0,29.88,WNW,299,1.0,2.0,88,0.00,,,0.00,weatherlink.com 1.10,2013-06-18 10:32:00,
2013-06-18 06:47:00,67.7,64.0,29.88,NW,323,0.0,1.0,87,0.00,,,0.00,weatherlink.com 1.10,2013-06-18 10:47:00,
2013-06-18 07:02:00,68.4,64.0,29.89,NW,326,0.0,2.0,86,0.00,,,0.00,weatherlink.com 1.10,2013-06-18 11:02:00,
2013-06-18 07:17:00,69.4,64.0,29.88,NW,322,0.0,2.0,84,0.00,,,0.00,weatherlink.com 1.10,2013-06-18 11:17:00,
2013-06-18 07:32:00,70.6,65.0,29.88,NW,315,0.0,0.0,82,0.00,,,0.00,weatherlink.com 1.10,2013-06-18 11:32:00,
2013-06-18 07:48:00,71.5,65.0,29.88,WNW,285,0.0,1.0,81,0.00,,,0.00,weatherlink.com 1.10,2013-06-18 11:48:00,
2013-06-18 08:03:00,72.4,66.0,29.88,West,276,0.0,1.0,79,0.00,,,0.00,weatherlink.com 1.10,2013-06-18 12:03:00,
2013-06-18 08:18:00,73.2,66.0,29.89,WNW,283,0.0,1.0,78,0.00,,,0.00,weatherlink.com 1.10,2013-06-18 12:18:00,
2013-06-18 08:33:00,74.1,66.0,29.89,SSW,207,0.0,1.0,77,0.00,,,0.00,weatherlink.com 1.10,2013-06-18 12:33:00,
2013-06-18 08:48:00,75.0,67.0,29.89,WNW,303,0.0,2.0,76,0.00,,,0.00,weatherlink.com 1.10,2013-06-18 12:48:00,
2013-06-18 09:03:00,75.2,67.0,29.89,SSW,203,0.0,1.0,75,0.00,,,0.00,weatherlink.com 1.10,2013-06-18 13:03:00,
2013-06-18 09:18:00,76.6,67.0,29.88,SSW,205,0.0,3.0,73,0.00,,,0.00,weatherlink.com 1.10,2013-06-18 13:18:00,
2013-06-18 09:34:00,77.9,66.0,29.88,South,187,0.0,2.0,67,0.00,,,0.00,weatherlink.com 1.10,2013-06-18 13:34:00,
2013-06-18 09:48:00,79.4,67.0,29.88,WNW,293,0.0,3.0,65,0.00,,,0.00,weatherlink.com 1.10,2013-06-18 13:48:00,
2013-06-18 10:03:00,81.0,67.0,29.87,NW,314,0.0,3.0,63,0.00,,,0.00,weatherlink.com 1.10,2013-06-18 14:03:00,
2013-06-18 10:18:00,81.3,67.0,29.87,SSW,197,0.0,2.0,63,0.00,,,0.00,weatherlink.com 1.10,2013-06-18 14:18:00,
2013-06-18 10:33:00,82.0,68.0,29.87,NW,322,0.0,3.0,62,0.00,,,0.00,weatherlink.com 1.10,2013-06-18 14:33:00,
2013-06-18 10:48:00,83.3,68.0,29.86,South,186,0.0,2.0,61,0.00,,,0.00,weatherlink.com 1.10,2013-06-18 14:48:00,
2013-06-18 11:03:00,84.5,68.0,29.86,South,173,0.0,2.0,58,0.00,,,0.00,weatherlink.com 1.10,2013-06-18 15:03:00,
2013-06-18 11:18:00,84.3,67.0,29.86,South,176,0.0,3.0,57,0.00,,,0.00,weatherlink.com 1.10,2013-06-18 15:18:00,
2013-06-18 11:33:00,84.5,67.0,29.85,SSE,160,1.0,5.0,55,0.00,,,0.00,weatherlink.com 1.10,2013-06-18 15:33:00,
2013-06-18 11:48:00,84.5,66.0,29.85,South,177,1.0,5.0,54,0.00,,,0.00,weatherlink.com 1.10,2013-06-18 15:48:00,
2013-06-18 12:03:00,85.0,68.0,29.85,SSW,194,0.0,5.0,57,0.00,,,0.00,weatherlink.com 1.10,2013-06-18 16:03:00,
2013-06-18 12:18:00,85.3,67.0,29.85,SSW,211,3.0,6.0,55,0.00,,,0.00,weatherlink.com 1.10,2013-06-18 16:18:00,
2013-06-18 12:33:00,85.8,67.0,29.84,South,190,2.0,4.0,53,0.00,,,0.00,weatherlink.com 1.10,2013-06-18 16:33:00,
2013-06-18 12:48:00,85.3,66.0,29.83,SW,219,1.0,5.0,53,0.00,,,0.00,weatherlink.com 1.10,2013-06-18 16:48:00,
2013-06-18 13:03:00,83.6,65.0,29.83,SW,221,0.0,7.0,54,0.00,,,0.00,weatherlink.com 1.10,2013-06-18 17:03:00,
2013-06-18 13:18:00,82.7,66.0,29.82,SSW,204,1.0,4.0,58,0.00,,,0.00,weatherlink.com 1.10,2013-06-18 17:18:00,
2013-06-18 13:33:00,81.5,67.0,29.82,SW,219,2.0,10.0,62,0.00,,,0.00,weatherlink.com 1.10,2013-06-18 17:33:00,
2013-06-18 13:48:00,80.7,68.0,29.82,SSW,207,0.0,4.0,65,0.00,,,0.00,weatherlink.com 1.10,2013-06-18 17:48:00,
2013-06-18 14:03:00,79.7,68.0,29.82,SSW,194,2.0,6.0,67,0.00,,,0.00,weatherlink.com 1.10,2013-06-18 18:03:00,
2013-06-18 14:18:00,78.4,67.0,29.82,South,179,3.0,5.0,68,0.00,,,0.00,weatherlink.com 1.10,2013-06-18 18:18:00,
2013-06-18 14:33:00,78.0,68.0,29.82,South,184,0.0,5.0,72,0.00,,,0.00,weatherlink.com 1.10,2013-06-18 18:33:00,
2013-06-18 14:48:00,77.7,68.0,29.81,SSW,209,2.0,3.0,73,0.00,,,0.00,weatherlink.com 1.10,2013-06-18 18:48:00,
2013-06-18 15:03:00,76.6,68.0,29.81,SSE,164,1.0,6.0,74,0.00,,,0.00,weatherlink.com 1.10,2013-06-18 19:03:00,
2013-06-18 15:18:00,76.4,67.0,29.80,SSW,208,0.0,7.0,73,0.00,,,0.00,weatherlink.com 1.10,2013-06-18 19:18:00,
2013-06-18 15:33:00,76.1,67.0,29.82,South,191,0.0,3.0,74,0.00,,,0.00,weatherlink.com 1.10,2013-06-18 19:33:00,
2013-06-18 15:49:00,75.8,68.0,29.83,SSW,194,3.0,6.0,77,0.00,,,0.00,weatherlink.com 1.10,2013-06-18 19:49:00,
2013-06-18 16:04:00,74.8,69.0,29.82,South,186,2.0,7.0,82,0.00,,,0.00,weatherlink.com 1.10,2013-06-18 20:04:00,
2013-06-18 16:19:00,74.1,70.0,29.82,SE,146,1.0,4.0,86,0.01,,,0.01,weatherlink.com 1.10,2013-06-18 20:19:00,
2013-06-18 16:34:00,73.7,70.0,29.82,SSE,155,0.0,4.0,87,0.02,,,0.02,weatherlink.com 1.10,2013-06-18 20:34:00,
2013-06-18 16:49:00,71.8,66.0,29.82,SSE,156,1.0,5.0,83,0.02,,,0.02,weatherlink.com 1.10,2013-06-18 20:49:00,
2013-06-18 17:04:00,70.2,65.0,29.83,South,172,1.0,3.0,84,0.03,,,0.03,weatherlink.com 1.10,2013-06-18 21:04:00,
2013-06-18 17:19:00,69.6,64.0,29.86,NNE,25,5.0,9.0,81,0.03,,,0.04,weatherlink.com 1.10,2013-06-18 21:19:00,
2013-06-18 17:34:00,66.7,62.0,29.86,ESE,117,0.0,4.0,85,0.09,,,0.11,weatherlink.com 1.10,2013-06-18 21:34:00,
2013-06-18 17:49:00,65.8,61.0,29.86,SW,232,0.0,4.0,84,0.19,,,0.21,weatherlink.com 1.10,2013-06-18 21:49:00,
2013-06-18 18:04:00,65.4,61.0,29.86,SW,231,0.0,0.0,86,0.22,,,0.25,weatherlink.com 1.10,2013-06-18 22:04:00,
2013-06-18 18:19:00,65.5,62.0,29.86,SW,231,0.0,0.0,88,0.24,,,0.28,weatherlink.com 1.10,2013-06-18 22:19:00,
2013-06-18 18:34:00,65.6,62.0,29.85,SW,231,0.0,0.0,89,0.20,,,0.31,weatherlink.com 1.10,2013-06-18 22:34:00,
2013-06-18 18:49:00,65.9,63.0,29.85,SW,231,0.0,0.0,90,0.12,,,0.33,weatherlink.com 1.10,2013-06-18 22:49:00,
2013-06-18 19:04:00,66.0,63.0,29.84,SW,231,0.0,0.0,90,0.09,,,0.34,weatherlink.com 1.10,2013-06-18 23:04:00,
2013-06-18 19:19:00,66.4,64.0,29.83,SW,229,0.0,0.0,91,0.06,,,0.34,weatherlink.com 1.10,2013-06-18 23:19:00,
2013-06-18 19:34:00,66.2,63.0,29.82,SW,228,0.0,0.0,90,0.04,,,0.35,weatherlink.com 1.10,2013-06-18 23:34:00,
2013-06-18 19:49:00,66.7,64.0,29.84,NNE,25,6.0,7.0,90,0.02,,,0.35,weatherlink.com 1.10,2013-06-18 23:49:00,
2013-06-18 20:04:00,65.5,63.0,29.83,North,359,5.0,9.0,91,0.01,,,0.35,weatherlink.com 1.10,2013-06-19 00:04:00,
2013-06-18 20:19:00,65.1,63.0,29.83,North,6,0.0,7.0,92,0.01,,,0.35,weatherlink.com 1.10,2013-06-19 00:19:00,
2013-06-18 20:34:00,64.9,62.0,29.83,NE,41,2.0,4.0,91,0.00,,,0.35,weatherlink.com 1.10,2013-06-19 00:34:00,
2013-06-18 20:49:00,64.9,62.0,29.83,NNE,20,1.0,3.0,91,0.00,,,0.35,weatherlink.com 1.10,2013-06-19 00:49:00,
2013-06-18 21:04:00,65.0,62.0,29.84,NE,35,1.0,4.0,91,0.01,,,0.36,weatherlink.com 1.10,2013-06-19 01:04:00,
2013-06-18 21:19:00,64.8,62.0,29.84,ENE,63,1.0,7.0,91,0.01,,,0.36,weatherlink.com 1.10,2013-06-19 01:19:00,
2013-06-18 21:34:00,64.8,62.0,29.84,NE,49,1.0,4.0,91,0.01,,,0.36,weatherlink.com 1.10,2013-06-19 01:34:00,
2013-06-18 21:49:00,65.1,63.0,29.84,NNW,346,3.0,6.0,92,0.01,,,0.36,weatherlink.com 1.10,2013-06-19 01:49:00,
2013-06-18 22:04:00,65.4,63.0,29.85,NNW,330,1.0,6.0,93,0.00,,,0.36,weatherlink.com 1.10,2013-06-19 02:04:00,
2013-06-18 22:19:00,65.6,64.0,29.86,NW,319,1.0,4.0,93,0.00,,,0.36,weatherlink.com 1.10,2013-06-19 02:19:00,
2013-06-18 22:34:00,65.9,64.0,29.86,NW,326,2.0,4.0,94,0.00,,,0.36,weatherlink.com 1.10,2013-06-19 02:34:00,
2013-06-18 22:49:00,66.1,64.0,29.86,NNE,12,3.0,5.0,93,0.00,,,0.36,weatherlink.com 1.10,2013-06-19 02:49:00,
2013-06-18 23:04:00,66.2,64.0,29.87,NNE,20,3.0,7.0,93,0.00,,,0.36,weatherlink.com 1.10,2013-06-19 03:04:00,
2013-06-18 23:19:00,66.1,64.0,29.86,NE,41,3.0,8.0,92,0.00,,,0.36,weatherlink.com 1.10,2013-06-19 03:19:00,
2013-06-18 23:34:00,66.0,64.0,29.87,NNW,337,2.0,5.0,92,0.00,,,0.36,weatherlink.com 1.10,2013-06-19 03:34:00,
2013-06-18 23:49:00,65.9,64.0,29.87,NW,316,3.0,5.0,92,0.00,,,0.36,weatherlink.com 1.10,2013-06-19 03:49:00,